createdAt,value
2022-12-25T00:00:04.452Z,5
2022-12-25T00:01:04.520Z,5
2022-12-25T00:02:04.267Z,5
2022-12-25T00:03:04.730Z,5
2022-12-25T00:04:03.921Z,5
2022-12-25T00:05:03.791Z,5
2022-12-25T00:06:03.715Z,5
2022-12-25T00:07:04.733Z,6
2022-12-25T00:08:03.745Z,5
2022-12-25T00:09:03.983Z,5
2022-12-25T00:10:03.700Z,4
2022-12-25T00:11:04.545Z,5
2022-12-25T00:12:03.714Z,5
2022-12-25T00:13:04.045Z,5
2022-12-25T00:14:04.466Z,4
2022-12-25T00:15:04.448Z,5
2022-12-25T00:16:04.053Z,4
2022-12-25T00:17:04.358Z,4
2022-12-25T00:18:03.830Z,4
2022-12-25T00:19:03.837Z,5
2022-12-25T00:20:04.651Z,4
2022-12-25T00:21:04.268Z,5
2022-12-25T00:22:04.385Z,4
2022-12-25T00:23:04.012Z,5
2022-12-25T00:24:03.777Z,5
2022-12-25T00:25:03.778Z,5
2022-12-25T00:26:03.771Z,4
2022-12-25T00:27:04.439Z,4
2022-12-25T00:28:04.284Z,5
2022-12-25T00:29:04.416Z,5
2022-12-25T00:30:04.320Z,4
2022-12-25T00:31:04.310Z,4
2022-12-25T00:32:04.327Z,5
2022-12-25T00:33:04.437Z,5
2022-12-25T00:34:04.487Z,5
2022-12-25T00:35:03.749Z,4
2022-12-25T00:36:03.796Z,4
2022-12-25T00:37:04.474Z,4
2022-12-25T00:38:04.634Z,4
2022-12-25T00:39:03.703Z,4
2022-12-25T00:40:03.768Z,5
2022-12-25T00:41:03.930Z,4
2022-12-25T00:42:03.873Z,5
2022-12-25T00:43:03.810Z,5
2022-12-25T00:44:04.002Z,4
2022-12-25T00:45:04.224Z,4
2022-12-25T00:46:04.225Z,5
2022-12-25T00:47:03.859Z,5
2022-12-25T00:48:03.779Z,4
2022-12-25T00:49:04.293Z,4
2022-12-25T00:50:04.085Z,4
2022-12-25T00:51:03.756Z,4
2022-12-25T00:52:03.750Z,4
2022-12-25T00:53:04.509Z,4
2022-12-25T00:54:03.761Z,4
2022-12-25T00:55:03.758Z,4
2022-12-25T00:56:03.763Z,5
2022-12-25T00:57:03.899Z,5
2022-12-25T00:58:03.804Z,5
2022-12-25T00:59:03.817Z,4
2022-12-25T01:00:03.912Z,4
2022-12-25T01:01:04.283Z,4
2022-12-25T01:02:03.880Z,4
2022-12-25T01:03:04.332Z,5
2022-12-25T01:04:04.424Z,5
2022-12-25T01:05:04.234Z,5
2022-12-25T01:06:04.544Z,4
2022-12-25T01:07:04.159Z,4
2022-12-25T01:08:03.864Z,4
2022-12-25T01:09:03.760Z,4
2022-12-25T01:10:04.932Z,4
2022-12-25T01:11:04.380Z,4
2022-12-25T01:12:04.591Z,4
2022-12-25T01:13:04.193Z,5
2022-12-25T01:14:04.469Z,6
2022-12-25T01:15:04.214Z,6
2022-12-25T01:16:03.904Z,5
2022-12-25T01:17:03.790Z,4
2022-12-25T01:18:07.713Z,5
2022-12-25T01:19:04.134Z,4
2022-12-25T01:20:04.057Z,4
2022-12-25T01:21:04.662Z,9
2022-12-25T01:22:04.180Z,4
2022-12-25T01:23:04.272Z,4
2022-12-25T01:24:04.798Z,5
2022-12-25T01:25:03.733Z,4
2022-12-25T01:26:04.257Z,4
2022-12-25T01:27:04.422Z,4
2022-12-25T01:28:03.780Z,5
2022-12-25T01:29:04.248Z,4
2022-12-25T01:30:04.179Z,4
2022-12-25T01:31:03.827Z,4
2022-12-25T01:32:03.819Z,4
2022-12-25T01:33:04.219Z,4
2022-12-25T01:34:03.797Z,5
2022-12-25T01:35:03.811Z,4
2022-12-25T01:36:03.859Z,4
2022-12-25T01:37:03.845Z,4
2022-12-25T01:38:04.461Z,4
2022-12-25T01:39:03.764Z,4
2022-12-25T01:40:03.752Z,5
2022-12-25T01:41:03.769Z,4
2022-12-25T01:42:03.761Z,4
2022-12-25T01:43:03.932Z,5
2022-12-25T01:44:03.767Z,5
2022-12-25T01:45:04.423Z,5
2022-12-25T01:46:04.640Z,4
2022-12-25T01:47:04.050Z,4
2022-12-25T01:48:04.300Z,5
2022-12-25T01:49:03.821Z,4
2022-12-25T01:50:03.742Z,4
2022-12-25T01:51:03.764Z,5
2022-12-25T01:52:04.330Z,4
2022-12-25T01:53:04.470Z,4
2022-12-25T01:54:04.653Z,4
2022-12-25T01:55:03.859Z,4
2022-12-25T01:56:03.924Z,4
2022-12-25T01:57:04.603Z,4
2022-12-25T01:58:03.933Z,4
2022-12-25T01:59:03.761Z,4
2022-12-25T02:00:03.878Z,4
2022-12-25T02:01:03.808Z,5
2022-12-25T02:02:04.490Z,4
2022-12-25T02:03:04.164Z,4
2022-12-25T02:04:03.734Z,4
2022-12-25T02:05:04.317Z,4
2022-12-25T02:06:03.760Z,4
2022-12-25T02:07:04.283Z,5
2022-12-25T02:08:03.764Z,4
2022-12-25T02:09:03.846Z,4
2022-12-25T02:10:03.850Z,5
2022-12-25T02:11:04.163Z,4
2022-12-25T02:12:03.741Z,4
2022-12-25T02:13:03.858Z,4
2022-12-25T02:14:03.770Z,4
2022-12-25T02:15:06.028Z,4
2022-12-25T02:16:04.302Z,4
2022-12-25T02:17:04.420Z,4
2022-12-25T02:18:04.714Z,4
2022-12-25T02:19:03.800Z,4
2022-12-25T02:20:03.773Z,4
2022-12-25T02:21:04.562Z,4
2022-12-25T02:22:03.845Z,4
2022-12-25T02:23:04.430Z,4
2022-12-25T02:24:04.447Z,5
2022-12-25T02:25:03.729Z,4
2022-12-25T02:26:03.812Z,4
2022-12-25T02:27:04.351Z,4
2022-12-25T02:28:03.876Z,4
2022-12-25T02:29:04.277Z,4
2022-12-25T02:30:04.179Z,4
2022-12-25T02:31:04.496Z,4
2022-12-25T02:32:04.342Z,4
2022-12-25T02:33:04.096Z,4
2022-12-25T02:34:03.884Z,4
2022-12-25T02:35:03.884Z,4
2022-12-25T02:36:04.258Z,4
2022-12-25T02:37:03.788Z,4
2022-12-25T02:38:03.837Z,4
2022-12-25T02:39:04.442Z,4
2022-12-25T02:40:03.879Z,4
2022-12-25T02:41:04.358Z,4
2022-12-25T02:42:03.931Z,4
2022-12-25T02:43:04.125Z,5
2022-12-25T02:44:04.194Z,4
2022-12-25T02:45:03.789Z,4
2022-12-25T02:46:04.457Z,4
2022-12-25T02:47:04.744Z,5
2022-12-25T02:48:03.749Z,4
2022-12-25T02:49:04.052Z,4
2022-12-25T02:50:03.738Z,4
2022-12-25T02:51:04.374Z,4
2022-12-25T02:52:03.824Z,4
2022-12-25T02:53:04.546Z,4
2022-12-25T02:54:03.810Z,4
2022-12-25T02:55:04.644Z,4
2022-12-25T02:56:03.781Z,5
2022-12-25T02:57:04.542Z,4
2022-12-25T02:58:03.850Z,4
2022-12-25T02:59:04.211Z,4
2022-12-25T03:00:03.865Z,4
2022-12-25T03:01:04.346Z,4
2022-12-25T03:02:04.081Z,4
2022-12-25T03:03:04.091Z,4
2022-12-25T03:04:03.814Z,4
2022-12-25T03:05:03.735Z,4
2022-12-25T03:06:04.257Z,4
2022-12-25T03:07:04.263Z,4
2022-12-25T03:08:03.811Z,4
2022-12-25T03:09:04.737Z,4
2022-12-25T03:10:04.538Z,5
2022-12-25T03:11:04.735Z,4
2022-12-25T03:12:03.791Z,4
2022-12-25T03:13:04.549Z,4
2022-12-25T03:14:04.161Z,4
2022-12-25T03:15:03.859Z,5
2022-12-25T03:16:04.075Z,4
2022-12-25T03:17:04.119Z,4
2022-12-25T03:18:03.767Z,4
2022-12-25T03:19:03.730Z,5
2022-12-25T03:20:04.640Z,4
2022-12-25T03:21:03.759Z,4
2022-12-25T03:22:03.805Z,4
2022-12-25T03:23:03.819Z,4
2022-12-25T03:24:04.050Z,4
2022-12-25T03:25:03.741Z,4
2022-12-25T03:26:03.844Z,4
2022-12-25T03:27:04.610Z,4
2022-12-25T03:28:03.851Z,4
2022-12-25T03:29:04.247Z,4
2022-12-25T03:30:03.927Z,4
2022-12-25T03:31:03.913Z,4
2022-12-25T03:32:03.731Z,4
2022-12-25T03:33:23.343Z,4
2022-12-25T03:34:04.139Z,4
2022-12-25T03:35:03.767Z,4
2022-12-25T03:36:04.111Z,4
2022-12-25T03:37:03.779Z,4
2022-12-25T03:38:04.107Z,4
2022-12-25T03:39:03.890Z,4
2022-12-25T03:40:03.804Z,4
2022-12-25T03:41:04.225Z,4
2022-12-25T03:42:03.813Z,4
2022-12-25T03:43:03.783Z,4
2022-12-25T03:44:03.763Z,4
2022-12-25T03:45:03.761Z,4
2022-12-25T03:46:03.981Z,4
2022-12-25T03:47:03.945Z,4
2022-12-25T03:48:03.787Z,4
2022-12-25T03:49:03.776Z,4
2022-12-25T03:50:04.275Z,4
2022-12-25T03:51:04.645Z,4
2022-12-25T03:52:03.978Z,5
2022-12-25T03:53:05.421Z,4
2022-12-25T03:54:03.785Z,4
2022-12-25T03:55:04.104Z,4
2022-12-25T03:56:04.365Z,4
2022-12-25T03:57:04.101Z,4
2022-12-25T03:58:03.742Z,4
2022-12-25T03:59:03.835Z,3
2022-12-25T04:00:03.822Z,4
2022-12-25T04:01:04.508Z,4
2022-12-25T04:02:03.942Z,4
2022-12-25T04:03:04.004Z,4
2022-12-25T04:04:04.158Z,4
2022-12-25T04:05:03.739Z,4
2022-12-25T04:06:04.268Z,4
2022-12-25T04:07:03.791Z,3
2022-12-25T04:08:04.111Z,4
2022-12-25T04:09:03.985Z,4
2022-12-25T04:10:04.314Z,4
2022-12-25T04:11:03.823Z,4
2022-12-25T04:12:04.607Z,4
2022-12-25T04:13:04.030Z,4
2022-12-25T04:14:04.223Z,4
2022-12-25T04:15:03.793Z,4
2022-12-25T04:16:03.977Z,4
2022-12-25T04:17:04.158Z,4
2022-12-25T04:18:03.760Z,4
2022-12-25T04:19:03.876Z,4
2022-12-25T04:20:03.812Z,4
2022-12-25T04:21:03.784Z,4
2022-12-25T04:22:03.880Z,3
2022-12-25T04:23:04.377Z,3
2022-12-25T04:24:04.060Z,3
2022-12-25T04:25:03.716Z,4
2022-12-25T04:26:03.776Z,4
2022-12-25T04:27:03.752Z,4
2022-12-25T04:28:03.874Z,4
2022-12-25T04:29:04.443Z,4
2022-12-25T04:30:03.779Z,4
2022-12-25T04:31:04.198Z,3
2022-12-25T04:32:04.046Z,4
2022-12-25T04:33:03.853Z,4
2022-12-25T04:34:03.943Z,4
2022-12-25T04:35:04.053Z,3
2022-12-25T04:36:04.561Z,4
2022-12-25T04:37:04.380Z,4
2022-12-25T04:38:03.764Z,4
2022-12-25T04:39:03.774Z,4
2022-12-25T04:40:03.752Z,3
2022-12-25T04:41:04.248Z,4
2022-12-25T04:42:03.820Z,3
2022-12-25T04:43:03.796Z,3
2022-12-25T04:44:03.725Z,4
2022-12-25T04:45:04.463Z,4
2022-12-25T04:46:03.822Z,4
2022-12-25T04:47:10.765Z,3
2022-12-25T04:48:04.455Z,4
2022-12-25T04:49:04.272Z,3
2022-12-25T04:50:03.790Z,3
2022-12-25T04:51:04.304Z,4
2022-12-25T04:52:03.845Z,3
2022-12-25T04:53:03.762Z,3
2022-12-25T04:54:04.018Z,3
2022-12-25T04:55:03.787Z,3
2022-12-25T04:56:04.330Z,3
2022-12-25T04:57:04.415Z,4
2022-12-25T04:58:04.515Z,3
2022-12-25T04:59:04.319Z,3
2022-12-25T05:00:03.771Z,3
2022-12-25T05:01:04.620Z,3
2022-12-25T05:02:03.893Z,3
2022-12-25T05:03:03.897Z,4
2022-12-25T05:04:03.834Z,3
2022-12-25T05:05:03.745Z,3
2022-12-25T05:06:04.470Z,3
2022-12-25T05:07:04.021Z,3
2022-12-25T05:08:03.741Z,3
2022-12-25T05:09:04.403Z,3
2022-12-25T05:10:03.780Z,3
2022-12-25T05:11:04.518Z,3
2022-12-25T05:12:04.718Z,3
2022-12-25T05:13:03.780Z,3
2022-12-25T05:14:03.817Z,3
2022-12-25T05:15:04.335Z,4
2022-12-25T05:16:03.967Z,3
2022-12-25T05:17:03.846Z,3
2022-12-25T05:18:04.572Z,4
2022-12-25T05:19:03.757Z,3
2022-12-25T05:20:04.315Z,4
2022-12-25T05:21:04.276Z,3
2022-12-25T05:22:04.174Z,3
2022-12-25T05:23:04.680Z,3
2022-12-25T05:24:04.600Z,3
2022-12-25T05:25:03.874Z,3
2022-12-25T05:26:03.790Z,3
2022-12-25T05:27:03.776Z,4
2022-12-25T05:28:03.758Z,4
2022-12-25T05:29:04.329Z,3
2022-12-25T05:30:03.811Z,3
2022-12-25T05:31:03.956Z,3
2022-12-25T05:32:03.847Z,3
2022-12-25T05:33:04.537Z,3
2022-12-25T05:34:03.848Z,3
2022-12-25T05:35:03.823Z,4
2022-12-25T05:36:03.883Z,3
2022-12-25T05:37:03.754Z,3
2022-12-25T05:38:04.259Z,3
2022-12-25T05:39:03.988Z,3
2022-12-25T05:40:03.792Z,3
2022-12-25T05:41:03.773Z,3
2022-12-25T05:42:04.383Z,3
2022-12-25T05:43:03.779Z,3
2022-12-25T05:44:03.932Z,4
2022-12-25T05:45:03.744Z,3
2022-12-25T05:46:03.819Z,3
2022-12-25T05:47:04.587Z,3
2022-12-25T05:48:04.232Z,3
2022-12-25T05:49:03.824Z,3
2022-12-25T05:50:04.543Z,3
2022-12-25T05:51:03.793Z,3
2022-12-25T05:52:04.208Z,3
2022-12-25T05:53:08.074Z,3
2022-12-25T05:54:04.181Z,3
2022-12-25T05:55:04.162Z,3
2022-12-25T05:56:03.818Z,3
2022-12-25T05:57:03.787Z,3
2022-12-25T05:58:04.118Z,3
2022-12-25T05:59:03.882Z,3
2022-12-25T06:00:04.126Z,3
2022-12-25T06:01:04.668Z,3
2022-12-25T06:02:03.844Z,3
2022-12-25T06:03:03.953Z,4
2022-12-25T06:04:10.172Z,3
2022-12-25T06:05:03.748Z,3
2022-12-25T06:06:03.865Z,3
2022-12-25T06:07:04.384Z,4
2022-12-25T06:08:04.425Z,4
2022-12-25T06:09:04.359Z,3
2022-12-25T06:10:04.600Z,3
2022-12-25T06:11:03.811Z,4
2022-12-25T06:12:03.785Z,3
2022-12-25T06:13:03.753Z,3
2022-12-25T06:14:03.746Z,4
2022-12-25T06:15:03.748Z,3
2022-12-25T06:16:03.871Z,3
2022-12-25T06:17:04.549Z,4
2022-12-25T06:18:04.668Z,3
2022-12-25T06:19:03.754Z,3
2022-12-25T06:20:03.798Z,4
2022-12-25T06:21:04.693Z,3
2022-12-25T06:22:03.748Z,4
2022-12-25T06:23:04.388Z,3
2022-12-25T06:24:03.976Z,3
2022-12-25T06:25:03.758Z,3
2022-12-25T06:26:04.434Z,3
2022-12-25T06:27:03.801Z,3
2022-12-25T06:28:03.861Z,3
2022-12-25T06:29:03.795Z,4
2022-12-25T06:30:03.854Z,3
2022-12-25T06:31:04.192Z,4
2022-12-25T06:32:04.500Z,3
2022-12-25T06:33:04.267Z,4
2022-12-25T06:34:03.865Z,4
2022-12-25T06:35:04.360Z,4
2022-12-25T06:36:03.802Z,4
2022-12-25T06:37:03.819Z,4
2022-12-25T06:38:04.028Z,4
2022-12-25T06:39:03.761Z,4
2022-12-25T06:40:03.834Z,5
2022-12-25T06:41:03.807Z,4
2022-12-25T06:42:04.205Z,4
2022-12-25T06:43:04.215Z,4
2022-12-25T06:44:04.123Z,4
2022-12-25T06:45:03.817Z,4
2022-12-25T06:46:04.735Z,4
2022-12-25T06:47:04.653Z,4
2022-12-25T06:48:03.856Z,4
2022-12-25T06:49:04.695Z,4
2022-12-25T06:50:03.769Z,4
2022-12-25T06:51:04.166Z,5
2022-12-25T06:52:03.844Z,4
2022-12-25T06:53:03.704Z,5
2022-12-25T06:54:04.029Z,4
2022-12-25T06:55:03.876Z,5
2022-12-25T06:56:04.963Z,5
2022-12-25T06:57:04.902Z,5
2022-12-25T06:58:04.516Z,5
2022-12-25T06:59:03.800Z,5
2022-12-25T07:00:03.798Z,5
2022-12-25T07:01:03.872Z,5
2022-12-25T07:02:03.894Z,5
2022-12-25T07:03:04.416Z,5
2022-12-25T07:04:04.121Z,5
2022-12-25T07:05:03.751Z,5
2022-12-25T07:06:04.552Z,5
2022-12-25T07:07:08.696Z,5
2022-12-25T07:08:04.471Z,5
2022-12-25T07:09:04.689Z,5
2022-12-25T07:10:04.093Z,5
2022-12-25T07:11:03.786Z,5
2022-12-25T07:12:03.888Z,5
2022-12-25T07:13:05.589Z,5
2022-12-25T07:14:04.300Z,5
2022-12-25T07:15:04.000Z,6
2022-12-25T07:16:04.068Z,5
2022-12-25T07:17:03.773Z,5
2022-12-25T07:18:03.703Z,5
2022-12-25T07:19:04.642Z,5
2022-12-25T07:20:04.159Z,5
2022-12-25T07:21:03.799Z,5
2022-12-25T07:22:03.851Z,5
2022-12-25T07:23:03.840Z,5
2022-12-25T07:24:03.886Z,5
2022-12-25T07:25:04.343Z,5
2022-12-25T07:26:04.576Z,5
2022-12-25T07:27:03.742Z,5
2022-12-25T07:28:03.798Z,6
2022-12-25T07:29:03.919Z,5
2022-12-25T07:30:04.614Z,5
2022-12-25T07:31:04.337Z,5
2022-12-25T07:32:04.294Z,5
2022-12-25T07:33:03.886Z,5
2022-12-25T07:34:03.714Z,4
2022-12-25T07:35:04.327Z,5
2022-12-25T07:36:04.784Z,5
2022-12-25T07:37:03.769Z,5
2022-12-25T07:38:03.902Z,7
2022-12-25T07:39:04.671Z,5
2022-12-25T07:40:03.757Z,5
2022-12-25T07:41:04.572Z,5
2022-12-25T07:42:04.315Z,5
2022-12-25T07:43:04.716Z,5
2022-12-25T07:44:03.793Z,5
2022-12-25T07:45:04.290Z,4
2022-12-25T07:46:04.746Z,5
2022-12-25T07:47:03.789Z,4
2022-12-25T07:48:05.899Z,4
2022-12-25T07:49:03.869Z,5
2022-12-25T07:50:04.646Z,4
2022-12-25T07:51:03.861Z,5
2022-12-25T07:52:04.372Z,4
2022-12-25T07:53:03.821Z,5
2022-12-25T07:54:03.781Z,4
2022-12-25T07:55:03.798Z,4
2022-12-25T07:56:04.376Z,4
2022-12-25T07:57:04.298Z,4
2022-12-25T07:58:03.862Z,4
2022-12-25T07:59:03.788Z,4
2022-12-25T08:00:04.205Z,4
2022-12-25T08:01:04.242Z,4
2022-12-25T08:02:05.004Z,5
2022-12-25T08:03:04.217Z,4
2022-12-25T08:04:03.899Z,4
2022-12-25T08:05:04.235Z,4
2022-12-25T08:06:04.130Z,5
2022-12-25T08:07:03.867Z,4
2022-12-25T08:08:03.939Z,4
2022-12-25T08:09:03.806Z,4
2022-12-25T08:10:04.378Z,4
2022-12-25T08:11:03.861Z,4
2022-12-25T08:12:03.904Z,4
2022-12-25T08:13:06.494Z,4
2022-12-25T08:14:03.963Z,4
2022-12-25T08:15:04.090Z,5
2022-12-25T08:16:06.324Z,4
2022-12-25T08:17:06.423Z,4
2022-12-25T08:18:06.351Z,4
2022-12-25T08:19:06.311Z,4
2022-12-25T08:20:06.367Z,4
2022-12-25T08:21:06.383Z,4
2022-12-25T08:22:06.419Z,5
2022-12-25T08:23:06.402Z,4
2022-12-25T08:24:06.395Z,4
2022-12-25T08:25:06.399Z,5
2022-12-25T08:26:06.324Z,4
2022-12-25T08:27:06.461Z,4
2022-12-25T08:28:06.348Z,4
2022-12-25T08:29:06.335Z,5
2022-12-25T08:30:06.291Z,4
2022-12-25T08:31:06.383Z,4
2022-12-25T08:32:06.324Z,4
2022-12-25T08:33:06.409Z,4
2022-12-25T08:34:06.356Z,4
2022-12-25T08:35:06.356Z,4
2022-12-25T08:36:06.374Z,4
2022-12-25T08:37:06.395Z,4
2022-12-25T08:38:06.433Z,4
2022-12-25T08:39:06.392Z,4
2022-12-25T08:40:06.417Z,4
2022-12-25T08:41:06.396Z,4
2022-12-25T08:42:06.324Z,4
2022-12-25T08:43:06.319Z,4
2022-12-25T08:44:06.334Z,4
2022-12-25T08:45:06.340Z,4
2022-12-25T08:46:06.434Z,4
2022-12-25T08:47:06.372Z,4
2022-12-25T08:48:06.352Z,4
2022-12-25T08:49:06.320Z,4
2022-12-25T08:50:06.370Z,4
2022-12-25T08:51:06.371Z,4
2022-12-25T08:52:06.307Z,4
2022-12-25T08:53:06.389Z,4
2022-12-25T08:54:06.292Z,4
2022-12-25T08:55:06.268Z,4
2022-12-25T08:56:06.417Z,4
2022-12-25T08:57:06.437Z,4
2022-12-25T08:58:06.402Z,5
2022-12-25T08:59:06.320Z,12
2022-12-25T09:00:06.318Z,7
2022-12-25T09:01:06.398Z,6
2022-12-25T09:02:06.578Z,4
2022-12-25T09:03:06.396Z,5
2022-12-25T09:04:06.298Z,4
2022-12-25T09:05:06.319Z,4
2022-12-25T09:06:06.326Z,4
2022-12-25T09:07:06.312Z,4
2022-12-25T09:08:06.332Z,4
2022-12-25T09:09:06.337Z,4
2022-12-25T09:10:06.293Z,4
2022-12-25T09:11:06.410Z,4
2022-12-25T09:12:06.323Z,4
2022-12-25T09:13:06.402Z,4
2022-12-25T09:14:06.430Z,4
2022-12-25T09:15:06.330Z,4
2022-12-25T09:16:06.375Z,4
2022-12-25T09:17:06.343Z,4
2022-12-25T09:18:06.306Z,4
2022-12-25T09:19:06.361Z,4
2022-12-25T09:20:06.354Z,4
2022-12-25T09:21:06.356Z,4
2022-12-25T09:22:06.363Z,4
2022-12-25T09:23:13.283Z,4
2022-12-25T09:24:06.369Z,4
2022-12-25T09:25:06.379Z,4
2022-12-25T09:26:06.397Z,4
2022-12-25T09:27:06.414Z,4
2022-12-25T09:28:06.393Z,5
2022-12-25T09:29:06.423Z,4
2022-12-25T09:30:06.262Z,6
2022-12-25T09:31:06.338Z,6
2022-12-25T09:32:06.367Z,5
2022-12-25T09:33:06.451Z,6
2022-12-25T09:34:06.347Z,6
2022-12-25T09:35:06.337Z,6
2022-12-25T09:36:06.333Z,5
2022-12-25T09:37:06.338Z,5
2022-12-25T09:38:06.365Z,5
2022-12-25T09:39:06.376Z,5
2022-12-25T09:40:06.396Z,5
2022-12-25T09:41:06.247Z,5
2022-12-25T09:42:06.305Z,5
2022-12-25T09:43:06.405Z,5
2022-12-25T09:44:06.392Z,5
2022-12-25T09:45:06.407Z,5
2022-12-25T09:46:06.323Z,5
2022-12-25T09:47:06.409Z,6
2022-12-25T09:48:06.330Z,7
2022-12-25T09:49:06.352Z,6
2022-12-25T09:50:06.451Z,6
2022-12-25T09:51:04.260Z,6
2022-12-25T09:52:03.917Z,7
2022-12-25T09:53:04.238Z,7
2022-12-25T09:54:05.637Z,6
2022-12-25T09:55:03.825Z,7
2022-12-25T09:56:03.811Z,12
2022-12-25T09:57:04.325Z,16
2022-12-25T09:58:04.447Z,8
2022-12-25T09:59:03.786Z,7
2022-12-25T10:00:03.791Z,6
2022-12-25T10:01:04.534Z,7
2022-12-25T10:02:04.606Z,8
2022-12-25T10:03:03.927Z,6
2022-12-25T10:04:03.753Z,6
2022-12-25T10:05:04.283Z,7
2022-12-25T10:06:04.182Z,8
2022-12-25T10:07:03.752Z,7
2022-12-25T10:08:03.796Z,7
2022-12-25T10:09:03.795Z,5
2022-12-25T10:10:03.813Z,5
2022-12-25T10:11:03.784Z,6
2022-12-25T10:12:04.321Z,5
2022-12-25T10:13:03.753Z,5
2022-12-25T10:14:03.762Z,5
2022-12-25T10:15:04.522Z,4
2022-12-25T10:16:03.878Z,5
2022-12-25T10:17:03.841Z,5
2022-12-25T10:18:04.374Z,4
2022-12-25T10:19:04.364Z,5
2022-12-25T10:20:04.796Z,5
2022-12-25T10:21:06.779Z,5
2022-12-25T10:22:03.781Z,5
2022-12-25T10:23:03.713Z,4
2022-12-25T10:24:04.061Z,5
2022-12-25T10:25:04.059Z,5
2022-12-25T10:26:04.367Z,4
2022-12-25T10:27:03.818Z,4
2022-12-25T10:28:04.379Z,4
2022-12-25T10:29:03.824Z,4
2022-12-25T10:30:04.651Z,4
2022-12-25T10:31:03.888Z,4
2022-12-25T10:32:03.839Z,6
2022-12-25T10:33:03.861Z,14
2022-12-25T10:34:04.083Z,4
2022-12-25T10:35:04.583Z,4
2022-12-25T10:36:04.684Z,4
2022-12-25T10:37:03.873Z,4
2022-12-25T10:38:04.059Z,4
2022-12-25T10:39:04.652Z,6
2022-12-25T10:40:03.809Z,4
2022-12-25T10:41:03.876Z,4
2022-12-25T10:42:03.812Z,4
2022-12-25T10:43:04.914Z,4
2022-12-25T10:44:05.550Z,6
2022-12-25T10:45:03.829Z,5
2022-12-25T10:46:03.877Z,4
2022-12-25T10:47:03.838Z,4
2022-12-25T10:48:07.384Z,5
2022-12-25T10:49:03.855Z,6
2022-12-25T10:50:03.868Z,6
2022-12-25T10:51:04.244Z,4
2022-12-25T10:52:03.992Z,6
2022-12-25T10:53:04.030Z,6
2022-12-25T10:54:04.050Z,6
2022-12-25T10:55:03.881Z,5
2022-12-25T10:56:04.199Z,10
2022-12-25T10:57:04.426Z,14
2022-12-25T10:58:04.221Z,15
2022-12-25T10:59:04.559Z,10
2022-12-25T11:00:03.911Z,8
2022-12-25T11:01:04.532Z,14
2022-12-25T11:02:03.984Z,12
2022-12-25T11:03:04.648Z,7
2022-12-25T11:04:04.303Z,7
2022-12-25T11:05:04.117Z,5
2022-12-25T11:06:04.580Z,6
2022-12-25T11:07:03.781Z,6
2022-12-25T11:08:03.889Z,5
2022-12-25T11:09:03.913Z,7
2022-12-25T11:10:05.631Z,8
2022-12-25T11:11:03.876Z,7
2022-12-25T11:12:03.795Z,6
2022-12-25T11:13:04.454Z,10
2022-12-25T11:14:04.463Z,9
2022-12-25T11:15:04.590Z,8
2022-12-25T11:16:03.910Z,11
2022-12-25T11:17:04.671Z,8
2022-12-25T11:18:03.841Z,13
2022-12-25T11:19:04.125Z,14
2022-12-25T11:20:03.860Z,15
2022-12-25T11:21:03.867Z,24
2022-12-25T11:22:03.808Z,23
2022-12-25T11:23:03.956Z,21
2022-12-25T11:24:04.171Z,14
2022-12-25T11:25:03.792Z,10
2022-12-25T11:26:03.782Z,13
2022-12-25T11:27:03.911Z,24
2022-12-25T11:28:04.328Z,19
2022-12-25T11:29:03.808Z,24
2022-12-25T11:30:04.032Z,16
2022-12-25T11:31:03.788Z,8
2022-12-25T11:32:04.524Z,11
2022-12-25T11:33:03.773Z,17
2022-12-25T11:34:03.764Z,13
2022-12-25T11:35:03.990Z,21
2022-12-25T11:36:03.878Z,14
2022-12-25T11:37:04.650Z,16
2022-12-25T11:38:03.769Z,8
2022-12-25T11:39:04.534Z,17
2022-12-25T11:40:03.765Z,10
2022-12-25T11:41:03.792Z,13
2022-12-25T11:42:04.269Z,12
2022-12-25T11:43:07.806Z,12
2022-12-25T11:44:04.458Z,12
2022-12-25T11:45:04.627Z,12
2022-12-25T11:46:04.662Z,9
2022-12-25T11:47:04.286Z,8
2022-12-25T11:48:04.439Z,7
2022-12-25T11:49:02.933Z,11
2022-12-25T11:50:03.831Z,10
2022-12-25T11:51:03.868Z,6
2022-12-25T11:52:03.848Z,11
2022-12-25T11:53:04.114Z,11
2022-12-25T11:54:04.563Z,8
2022-12-25T11:55:03.872Z,12
2022-12-25T11:56:03.962Z,7
2022-12-25T11:57:04.300Z,7
2022-12-25T11:58:04.703Z,7
2022-12-25T11:59:04.800Z,8
2022-12-25T12:00:03.850Z,6
2022-12-25T12:01:04.381Z,5
2022-12-25T12:02:03.895Z,5
2022-12-25T12:03:03.970Z,6
2022-12-25T12:04:03.893Z,6
2022-12-25T12:05:04.166Z,7
2022-12-25T12:06:03.760Z,5
2022-12-25T12:07:04.138Z,6
2022-12-25T12:08:03.827Z,6
2022-12-25T12:09:03.852Z,6
2022-12-25T12:10:04.289Z,5
2022-12-25T12:11:03.350Z,6
2022-12-25T12:12:03.776Z,6
2022-12-25T12:14:03.763Z,8
2022-12-25T12:15:03.819Z,7
2022-12-25T12:16:04.014Z,8
2022-12-25T12:17:04.232Z,6
2022-12-25T12:18:04.732Z,6
2022-12-25T12:19:04.395Z,7
2022-12-25T12:20:03.796Z,7
2022-12-25T12:21:03.836Z,6
2022-12-25T12:22:04.354Z,6
2022-12-25T12:23:03.842Z,5
2022-12-25T12:24:04.454Z,6
2022-12-25T12:25:03.859Z,5
2022-12-25T12:26:03.895Z,6
2022-12-25T12:27:04.164Z,5
2022-12-25T12:28:05.794Z,7
2022-12-25T12:29:03.746Z,5
2022-12-25T12:30:03.767Z,7
2022-12-25T12:31:03.766Z,6
2022-12-25T12:32:03.920Z,6
2022-12-25T12:33:04.327Z,7
2022-12-25T12:34:04.314Z,5
2022-12-25T12:35:02.986Z,6
2022-12-25T12:36:04.225Z,6
2022-12-25T12:37:04.760Z,6
2022-12-25T12:38:04.758Z,6
2022-12-25T12:39:03.747Z,5
2022-12-25T12:40:04.030Z,6
2022-12-25T12:41:04.363Z,5
2022-12-25T12:42:03.850Z,5
2022-12-25T12:43:05.626Z,5
2022-12-25T12:44:04.029Z,5
2022-12-25T12:45:04.493Z,7
2022-12-25T12:46:03.935Z,5
2022-12-25T12:47:03.908Z,8
2022-12-25T12:48:04.004Z,6
2022-12-25T12:49:03.767Z,6
2022-12-25T12:50:03.782Z,7
2022-12-25T12:51:03.845Z,6
2022-12-25T12:52:03.824Z,5
2022-12-25T12:53:04.011Z,5
2022-12-25T12:54:03.766Z,9
2022-12-25T12:55:04.068Z,6
2022-12-25T12:56:04.000Z,6
2022-12-25T12:57:04.585Z,5
2022-12-25T12:58:03.776Z,6
2022-12-25T12:59:04.181Z,5
2022-12-25T13:00:10.827Z,11
2022-12-25T13:01:03.854Z,7
2022-12-25T13:02:06.517Z,5
2022-12-25T13:03:04.546Z,6
2022-12-25T13:04:03.791Z,6
2022-12-25T13:05:03.788Z,7
2022-12-25T13:06:04.405Z,6
2022-12-25T13:07:03.759Z,6
2022-12-25T13:08:04.535Z,7
2022-12-25T13:09:04.143Z,10
2022-12-25T13:10:04.605Z,11
2022-12-25T13:11:04.035Z,9
2022-12-25T13:12:03.716Z,10
2022-12-25T13:13:03.784Z,11
2022-12-25T13:14:03.843Z,19
2022-12-25T13:15:03.870Z,16
2022-12-25T13:16:04.109Z,11
2022-12-25T13:17:03.849Z,11
2022-12-25T13:18:04.766Z,7
2022-12-25T13:19:04.811Z,6
2022-12-25T13:20:03.764Z,11
2022-12-25T13:21:04.868Z,5
2022-12-25T13:22:04.100Z,6
2022-12-25T13:23:04.044Z,13
2022-12-25T13:24:04.283Z,7
2022-12-25T13:25:03.841Z,5
2022-12-25T13:26:03.832Z,5
2022-12-25T13:27:03.834Z,6
2022-12-25T13:28:03.853Z,6
2022-12-25T13:29:07.940Z,5
2022-12-25T13:30:04.583Z,4
2022-12-25T13:31:04.580Z,5
2022-12-25T13:32:03.867Z,5
2022-12-25T13:33:03.810Z,7
2022-12-25T13:34:03.784Z,6
2022-12-25T13:35:04.175Z,5
2022-12-25T13:36:03.771Z,5
2022-12-25T13:37:04.308Z,6
2022-12-25T13:38:03.823Z,5
2022-12-25T13:39:03.769Z,5
2022-12-25T13:40:04.241Z,6
2022-12-25T13:41:04.573Z,7
2022-12-25T13:42:03.832Z,9
2022-12-25T13:43:04.160Z,4
2022-12-25T13:44:03.907Z,5
2022-12-25T13:45:03.793Z,6
2022-12-25T13:46:04.620Z,9
2022-12-25T13:47:04.583Z,10
2022-12-25T13:48:04.097Z,7
2022-12-25T13:49:04.562Z,10
2022-12-25T13:50:04.493Z,7
2022-12-25T13:51:04.644Z,8
2022-12-25T13:52:04.253Z,7
2022-12-25T13:53:03.784Z,10
2022-12-25T13:54:04.435Z,11
2022-12-25T13:55:04.571Z,6
2022-12-25T13:56:04.452Z,4
2022-12-25T13:57:04.116Z,12
2022-12-25T13:58:04.182Z,8
2022-12-25T13:59:04.148Z,6
2022-12-25T14:00:04.061Z,10
2022-12-25T14:01:04.173Z,11
2022-12-25T14:02:04.043Z,12
2022-12-25T14:03:04.990Z,15
2022-12-25T14:04:03.890Z,16
2022-12-25T14:05:03.743Z,13
2022-12-25T14:06:03.809Z,13
2022-12-25T14:07:04.281Z,15
2022-12-25T14:08:03.917Z,9
2022-12-25T14:09:03.797Z,10
2022-12-25T14:10:04.445Z,9
2022-12-25T14:11:03.876Z,9
2022-12-25T14:12:03.821Z,8
2022-12-25T14:13:04.335Z,9
2022-12-25T14:14:03.985Z,6
2022-12-25T14:15:04.360Z,9
2022-12-25T14:16:03.852Z,7
2022-12-25T14:17:03.809Z,8
2022-12-25T14:18:04.355Z,8
2022-12-25T14:19:03.896Z,8
2022-12-25T14:20:08.543Z,7
2022-12-25T14:21:03.758Z,8
2022-12-25T14:22:04.256Z,6
2022-12-25T14:23:03.812Z,6
2022-12-25T14:24:03.720Z,6
2022-12-25T14:25:03.820Z,7
2022-12-25T14:26:04.638Z,6
2022-12-25T14:27:04.259Z,4
2022-12-25T14:28:04.282Z,7
2022-12-25T14:29:04.431Z,7
2022-12-25T14:30:04.709Z,7
2022-12-25T14:31:03.931Z,6
2022-12-25T14:32:03.962Z,5
2022-12-25T14:33:04.617Z,5
2022-12-25T14:34:03.865Z,5
2022-12-25T14:35:06.229Z,5
2022-12-25T14:36:04.029Z,5
2022-12-25T14:37:04.089Z,4
2022-12-25T14:38:04.321Z,5
2022-12-25T14:39:04.099Z,4
2022-12-25T14:40:03.998Z,5
2022-12-25T14:41:04.302Z,5
2022-12-25T14:42:04.214Z,4
2022-12-25T14:43:04.120Z,5
2022-12-25T14:44:03.973Z,5
2022-12-25T14:45:03.807Z,4